sensor_id;sensor_type;location;lat;lon;timestamp;P1;durP1;ratioP1;P2;durP2;ratioP2
41305;SDS011;27051;50.376;19.152;2023-02-24T00:01:00;37.10;;;19.40;;
41305;SDS011;27051;50.376;19.152;2023-02-24T00:03:27;38.10;;;19.80;;
41305;SDS011;27051;50.376;19.152;2023-02-24T00:05:54;42.00;;;19.90;;
41305;SDS011;27051;50.376;19.152;2023-02-24T00:08:20;35.10;;;18.20;;
41305;SDS011;27051;50.376;19.152;2023-02-24T00:10:46;37.70;;;18.50;;
41305;SDS011;27051;50.376;19.152;2023-02-24T00:13:12;43.10;;;19.80;;
41305;SDS011;27051;50.376;19.152;2023-02-24T00:15:38;39.10;;;19.10;;
41305;SDS011;27051;50.376;19.152;2023-02-24T00:18:05;37.70;;;19.30;;
41305;SDS011;27051;50.376;19.152;2023-02-24T00:20:32;39.50;;;20.30;;
41305;SDS011;27051;50.376;19.152;2023-02-24T00:22:58;42.40;;;19.40;;
41305;SDS011;27051;50.376;19.152;2023-02-24T00:25:24;37.00;;;18.50;;
41305;SDS011;27051;50.376;19.152;2023-02-24T00:27:54;40.00;;;19.30;;
41305;SDS011;27051;50.376;19.152;2023-02-24T00:30:20;37.70;;;17.70;;
41305;SDS011;27051;50.376;19.152;2023-02-24T00:32:46;40.00;;;20.00;;
41305;SDS011;27051;50.376;19.152;2023-02-24T00:35:12;41.90;;;20.20;;
41305;SDS011;27051;50.376;19.152;2023-02-24T00:37:39;41.90;;;20.70;;
41305;SDS011;27051;50.376;19.152;2023-02-24T00:40:05;44.70;;;21.30;;
41305;SDS011;27051;50.376;19.152;2023-02-24T00:42:32;40.80;;;19.70;;
41305;SDS011;27051;50.376;19.152;2023-02-24T00:44:58;36.00;;;19.40;;
41305;SDS011;27051;50.376;19.152;2023-02-24T00:47:24;35.90;;;19.30;;
41305;SDS011;27051;50.376;19.152;2023-02-24T00:49:51;32.60;;;17.50;;
41305;SDS011;27051;50.376;19.152;2023-02-24T00:52:18;36.90;;;17.80;;
41305;SDS011;27051;50.376;19.152;2023-02-24T00:54:46;42.30;;;18.50;;
41305;SDS011;27051;50.376;19.152;2023-02-24T00:57:14;40.10;;;19.90;;
41305;SDS011;27051;50.376;19.152;2023-02-24T00:59:41;39.00;;;18.50;;
41305;SDS011;27051;50.376;19.152;2023-02-24T01:02:07;38.30;;;18.20;;
41305;SDS011;27051;50.376;19.152;2023-02-24T01:04:34;37.70;;;18.20;;
41305;SDS011;27051;50.376;19.152;2023-02-24T01:07:00;39.00;;;18.00;;
41305;SDS011;27051;50.376;19.152;2023-02-24T01:09:28;36.80;;;17.80;;
41305;SDS011;27051;50.376;19.152;2023-02-24T01:11:56;35.00;;;17.90;;
41305;SDS011;27051;50.376;19.152;2023-02-24T01:14:23;37.30;;;17.20;;
41305;SDS011;27051;50.376;19.152;2023-02-24T01:16:51;33.90;;;17.30;;
41305;SDS011;27051;50.376;19.152;2023-02-24T01:19:19;33.10;;;16.40;;
41305;SDS011;27051;50.376;19.152;2023-02-24T01:21:48;33.30;;;16.80;;
41305;SDS011;27051;50.376;19.152;2023-02-24T01:24:14;29.80;;;15.50;;
41305;SDS011;27051;50.376;19.152;2023-02-24T01:26:41;33.90;;;15.80;;
41305;SDS011;27051;50.376;19.152;2023-02-24T01:29:08;28.80;;;15.50;;
41305;SDS011;27051;50.376;19.152;2023-02-24T01:31:37;35.60;;;17.40;;
41305;SDS011;27051;50.376;19.152;2023-02-24T01:34:05;40.30;;;17.40;;
41305;SDS011;27051;50.376;19.152;2023-02-24T01:36:32;34.60;;;17.20;;
41305;SDS011;27051;50.376;19.152;2023-02-24T01:38:59;37.90;;;18.10;;
41305;SDS011;27051;50.376;19.152;2023-02-24T01:41:26;34.90;;;18.70;;
41305;SDS011;27051;50.376;19.152;2023-02-24T01:46:31;34.10;;;17.30;;
41305;SDS011;27051;50.376;19.152;2023-02-24T01:49:04;38.00;;;18.30;;
41305;SDS011;27051;50.376;19.152;2023-02-24T01:51:34;36.30;;;18.30;;
41305;SDS011;27051;50.376;19.152;2023-02-24T01:54:04;36.90;;;18.40;;
41305;SDS011;27051;50.376;19.152;2023-02-24T01:56:39;36.00;;;18.20;;
41305;SDS011;27051;50.376;19.152;2023-02-24T01:59:06;31.10;;;17.00;;
41305;SDS011;27051;50.376;19.152;2023-02-24T02:01:34;35.90;;;17.20;;
41305;SDS011;27051;50.376;19.152;2023-02-24T02:04:02;35.50;;;16.90;;
41305;SDS011;27051;50.376;19.152;2023-02-24T02:06:38;30.90;;;16.40;;
41305;SDS011;27051;50.376;19.152;2023-02-24T02:09:04;33.80;;;16.60;;
41305;SDS011;27051;50.376;19.152;2023-02-24T02:11:31;37.70;;;16.80;;
41305;SDS011;27051;50.376;19.152;2023-02-24T02:13:57;31.90;;;17.10;;
41305;SDS011;27051;50.376;19.152;2023-02-24T02:24:43;34.90;;;16.00;;
41305;SDS011;27051;50.376;19.152;2023-02-24T02:30:04;34.30;;;15.60;;
41305;SDS011;27051;50.376;19.152;2023-02-24T02:35:29;31.90;;;16.10;;
41305;SDS011;27051;50.376;19.152;2023-02-24T02:38:09;33.20;;;17.50;;
41305;SDS011;27051;50.376;19.152;2023-02-24T02:40:38;35.00;;;17.30;;
41305;SDS011;27051;50.376;19.152;2023-02-24T02:46:07;34.80;;;17.70;;
41305;SDS011;27051;50.376;19.152;2023-02-24T02:48:45;32.50;;;17.80;;
41305;SDS011;27051;50.376;19.152;2023-02-24T02:51:25;39.50;;;18.60;;
41305;SDS011;27051;50.376;19.152;2023-02-24T02:54:11;34.90;;;18.10;;
41305;SDS011;27051;50.376;19.152;2023-02-24T02:57:03;35.90;;;18.40;;
41305;SDS011;27051;50.376;19.152;2023-02-24T02:59:39;37.90;;;19.00;;
41305;SDS011;27051;50.376;19.152;2023-02-24T03:02:16;40.00;;;19.30;;
41305;SDS011;27051;50.376;19.152;2023-02-24T03:04:54;36.40;;;19.80;;
41305;SDS011;27051;50.376;19.152;2023-02-24T03:07:25;32.00;;;16.10;;
41305;SDS011;27051;50.376;19.152;2023-02-24T03:10:05;30.50;;;16.60;;
41305;SDS011;27051;50.376;19.152;2023-02-24T03:12:34;32.90;;;15.40;;
41305;SDS011;27051;50.376;19.152;2023-02-24T03:15:05;29.90;;;15.30;;
41305;SDS011;27051;50.376;19.152;2023-02-24T03:17:36;31.00;;;14.80;;
41305;SDS011;27051;50.376;19.152;2023-02-24T03:20:12;31.20;;;15.20;;
41305;SDS011;27051;50.376;19.152;2023-02-24T03:22:47;31.40;;;15.40;;
41305;SDS011;27051;50.376;19.152;2023-02-24T03:25:24;29.20;;;14.30;;
41305;SDS011;27051;50.376;19.152;2023-02-24T03:27:54;29.40;;;14.20;;
41305;SDS011;27051;50.376;19.152;2023-02-24T03:30:28;31.50;;;14.30;;
41305;SDS011;27051;50.376;19.152;2023-02-24T03:33:11;30.70;;;14.60;;
41305;SDS011;27051;50.376;19.152;2023-02-24T03:35:49;30.90;;;14.20;;
41305;SDS011;27051;50.376;19.152;2023-02-24T03:38:16;28.80;;;14.90;;
41305;SDS011;27051;50.376;19.152;2023-02-24T03:40:44;27.20;;;13.90;;
41305;SDS011;27051;50.376;19.152;2023-02-24T03:43:19;32.30;;;15.40;;
41305;SDS011;27051;50.376;19.152;2023-02-24T03:45:48;31.20;;;15.70;;
41305;SDS011;27051;50.376;19.152;2023-02-24T03:48:14;32.30;;;15.60;;
41305;SDS011;27051;50.376;19.152;2023-02-24T03:50:41;26.40;;;13.50;;
41305;SDS011;27051;50.376;19.152;2023-02-24T03:59:20;30.50;;;16.00;;
41305;SDS011;27051;50.376;19.152;2023-02-24T04:02:13;31.80;;;15.00;;
41305;SDS011;27051;50.376;19.152;2023-02-24T04:04:58;29.90;;;15.80;;
41305;SDS011;27051;50.376;19.152;2023-02-24T04:07:36;31.00;;;15.00;;
41305;SDS011;27051;50.376;19.152;2023-02-24T04:10:28;30.60;;;16.50;;
41305;SDS011;27051;50.376;19.152;2023-02-24T04:15:47;33.80;;;17.80;;
41305;SDS011;27051;50.376;19.152;2023-02-24T04:18:20;32.40;;;16.20;;
41305;SDS011;27051;50.376;19.152;2023-02-24T04:20:50;32.20;;;15.90;;
41305;SDS011;27051;50.376;19.152;2023-02-24T04:23:17;36.40;;;17.70;;
41305;SDS011;27051;50.376;19.152;2023-02-24T04:25:49;26.90;;;14.70;;
41305;SDS011;27051;50.376;19.152;2023-02-24T04:28:21;30.10;;;16.50;;
41305;SDS011;27051;50.376;19.152;2023-02-24T04:30:51;29.20;;;15.60;;
41305;SDS011;27051;50.376;19.152;2023-02-24T04:33:23;37.10;;;16.80;;
41305;SDS011;27051;50.376;19.152;2023-02-24T04:35:50;33.60;;;17.90;;
41305;SDS011;27051;50.376;19.152;2023-02-24T04:38:18;35.70;;;17.50;;
41305;SDS011;27051;50.376;19.152;2023-02-24T04:40:45;35.00;;;18.40;;
41305;SDS011;27051;50.376;19.152;2023-02-24T04:43:12;32.70;;;16.70;;
41305;SDS011;27051;50.376;19.152;2023-02-24T04:45:39;32.90;;;16.60;;
41305;SDS011;27051;50.376;19.152;2023-02-24T04:48:07;32.90;;;17.20;;
41305;SDS011;27051;50.376;19.152;2023-02-24T04:50:35;31.70;;;17.10;;
41305;SDS011;27051;50.376;19.152;2023-02-24T04:53:04;33.20;;;17.90;;
41305;SDS011;27051;50.376;19.152;2023-02-24T04:55:34;31.00;;;16.50;;
41305;SDS011;27051;50.376;19.152;2023-02-24T04:58:12;38.40;;;19.50;;
41305;SDS011;27051;50.376;19.152;2023-02-24T05:00:40;34.20;;;17.00;;
41305;SDS011;27051;50.376;19.152;2023-02-24T05:03:07;33.50;;;17.60;;
41305;SDS011;27051;50.376;19.152;2023-02-24T05:05:35;34.40;;;17.80;;
41305;SDS011;27051;50.376;19.152;2023-02-24T05:08:03;34.50;;;17.30;;
41305;SDS011;27051;50.376;19.152;2023-02-24T05:10:39;33.20;;;16.80;;
41305;SDS011;27051;50.376;19.152;2023-02-24T05:13:15;33.40;;;18.00;;
41305;SDS011;27051;50.376;19.152;2023-02-24T05:15:45;30.70;;;15.80;;
41305;SDS011;27051;50.376;19.152;2023-02-24T05:18:15;35.30;;;17.60;;
41305;SDS011;27051;50.376;19.152;2023-02-24T05:20:45;30.30;;;17.90;;
41305;SDS011;27051;50.376;19.152;2023-02-24T05:23:13;32.30;;;17.40;;
41305;SDS011;27051;50.376;19.152;2023-02-24T05:25:39;31.80;;;17.30;;
41305;SDS011;27051;50.376;19.152;2023-02-24T05:28:06;33.70;;;17.80;;
41305;SDS011;27051;50.376;19.152;2023-02-24T05:30:37;35.40;;;18.30;;
41305;SDS011;27051;50.376;19.152;2023-02-24T05:33:03;36.40;;;15.90;;
41305;SDS011;27051;50.376;19.152;2023-02-24T05:35:29;28.80;;;16.90;;
41305;SDS011;27051;50.376;19.152;2023-02-24T05:37:55;34.10;;;18.40;;
41305;SDS011;27051;50.376;19.152;2023-02-24T05:40:22;35.20;;;17.50;;
41305;SDS011;27051;50.376;19.152;2023-02-24T05:42:49;32.70;;;16.70;;
41305;SDS011;27051;50.376;19.152;2023-02-24T05:45:17;33.20;;;17.40;;
41305;SDS011;27051;50.376;19.152;2023-02-24T05:47:43;36.00;;;17.20;;
41305;SDS011;27051;50.376;19.152;2023-02-24T05:50:11;35.40;;;17.50;;
41305;SDS011;27051;50.376;19.152;2023-02-24T05:52:39;33.00;;;16.50;;
41305;SDS011;27051;50.376;19.152;2023-02-24T05:55:14;33.80;;;18.20;;
41305;SDS011;27051;50.376;19.152;2023-02-24T05:57:41;33.20;;;17.30;;
41305;SDS011;27051;50.376;19.152;2023-02-24T06:00:08;35.00;;;17.50;;
41305;SDS011;27051;50.376;19.152;2023-02-24T06:02:35;31.40;;;17.00;;
41305;SDS011;27051;50.376;19.152;2023-02-24T06:05:02;35.10;;;16.40;;
41305;SDS011;27051;50.376;19.152;2023-02-24T06:07:29;35.60;;;17.40;;
41305;SDS011;27051;50.376;19.152;2023-02-24T06:09:57;31.80;;;16.50;;
41305;SDS011;27051;50.376;19.152;2023-02-24T06:12:25;34.00;;;17.30;;
41305;SDS011;27051;50.376;19.152;2023-02-24T06:14:53;34.50;;;17.90;;
41305;SDS011;27051;50.376;19.152;2023-02-24T06:17:20;33.60;;;17.70;;
41305;SDS011;27051;50.376;19.152;2023-02-24T06:19:48;33.20;;;16.70;;
41305;SDS011;27051;50.376;19.152;2023-02-24T06:22:17;36.20;;;17.30;;
41305;SDS011;27051;50.376;19.152;2023-02-24T06:24:48;34.10;;;17.60;;
41305;SDS011;27051;50.376;19.152;2023-02-24T06:27:18;37.60;;;19.00;;
41305;SDS011;27051;50.376;19.152;2023-02-24T06:29:45;35.20;;;18.10;;
41305;SDS011;27051;50.376;19.152;2023-02-24T06:32:13;32.50;;;17.60;;
41305;SDS011;27051;50.376;19.152;2023-02-24T06:34:39;31.50;;;17.00;;
41305;SDS011;27051;50.376;19.152;2023-02-24T06:37:11;32.00;;;17.80;;
41305;SDS011;27051;50.376;19.152;2023-02-24T06:39:39;31.90;;;17.50;;
41305;SDS011;27051;50.376;19.152;2023-02-24T06:42:08;35.50;;;19.50;;
41305;SDS011;27051;50.376;19.152;2023-02-24T06:44:38;40.40;;;20.60;;
41305;SDS011;27051;50.376;19.152;2023-02-24T06:47:12;38.80;;;20.80;;
41305;SDS011;27051;50.376;19.152;2023-02-24T06:49:39;37.70;;;20.50;;
41305;SDS011;27051;50.376;19.152;2023-02-24T06:52:09;37.50;;;20.40;;
41305;SDS011;27051;50.376;19.152;2023-02-24T06:54:35;38.40;;;19.10;;
41305;SDS011;27051;50.376;19.152;2023-02-24T06:57:02;34.60;;;19.00;;
41305;SDS011;27051;50.376;19.152;2023-02-24T06:59:29;37.10;;;20.40;;
41305;SDS011;27051;50.376;19.152;2023-02-24T07:01:55;39.00;;;21.00;;
41305;SDS011;27051;50.376;19.152;2023-02-24T07:04:24;36.70;;;20.00;;
41305;SDS011;27051;50.376;19.152;2023-02-24T07:06:53;39.50;;;19.80;;
41305;SDS011;27051;50.376;19.152;2023-02-24T07:09:23;38.80;;;20.50;;
41305;SDS011;27051;50.376;19.152;2023-02-24T07:11:51;36.70;;;20.40;;
41305;SDS011;27051;50.376;19.152;2023-02-24T07:14:22;38.80;;;21.00;;
41305;SDS011;27051;50.376;19.152;2023-02-24T07:16:54;40.20;;;21.40;;
41305;SDS011;27051;50.376;19.152;2023-02-24T07:19:23;40.30;;;21.90;;
41305;SDS011;27051;50.376;19.152;2023-02-24T07:21:56;44.10;;;24.60;;
41305;SDS011;27051;50.376;19.152;2023-02-24T07:24:24;43.80;;;23.30;;
41305;SDS011;27051;50.376;19.152;2023-02-24T07:26:56;39.50;;;21.90;;
41305;SDS011;27051;50.376;19.152;2023-02-24T07:29:27;40.90;;;23.00;;
41305;SDS011;27051;50.376;19.152;2023-02-24T07:31:56;45.40;;;25.80;;
41305;SDS011;27051;50.376;19.152;2023-02-24T07:34:24;45.40;;;24.60;;
41305;SDS011;27051;50.376;19.152;2023-02-24T07:36:51;44.40;;;25.10;;
41305;SDS011;27051;50.376;19.152;2023-02-24T07:39:18;42.10;;;23.80;;
41305;SDS011;27051;50.376;19.152;2023-02-24T07:41:45;54.90;;;29.60;;
41305;SDS011;27051;50.376;19.152;2023-02-24T07:44:11;51.40;;;26.80;;
41305;SDS011;27051;50.376;19.152;2023-02-24T07:46:38;47.10;;;26.30;;
41305;SDS011;27051;50.376;19.152;2023-02-24T07:49:05;50.10;;;26.50;;
41305;SDS011;27051;50.376;19.152;2023-02-24T07:51:31;44.70;;;26.20;;
41305;SDS011;27051;50.376;19.152;2023-02-24T07:53:58;48.30;;;26.30;;
41305;SDS011;27051;50.376;19.152;2023-02-24T07:56:26;47.70;;;25.30;;
41305;SDS011;27051;50.376;19.152;2023-02-24T07:58:57;48.40;;;25.70;;
41305;SDS011;27051;50.376;19.152;2023-02-24T08:01:25;48.30;;;26.60;;
41305;SDS011;27051;50.376;19.152;2023-02-24T08:03:54;55.70;;;31.20;;
41305;SDS011;27051;50.376;19.152;2023-02-24T08:06:22;54.30;;;30.10;;
41305;SDS011;27051;50.376;19.152;2023-02-24T08:08:50;52.70;;;30.80;;
41305;SDS011;27051;50.376;19.152;2023-02-24T08:11:18;48.40;;;28.50;;
41305;SDS011;27051;50.376;19.152;2023-02-24T08:13:44;49.10;;;29.40;;
41305;SDS011;27051;50.376;19.152;2023-02-24T08:16:11;57.40;;;31.40;;
41305;SDS011;27051;50.376;19.152;2023-02-24T08:18:37;54.10;;;31.70;;
41305;SDS011;27051;50.376;19.152;2023-02-24T08:21:04;60.90;;;32.20;;
41305;SDS011;27051;50.376;19.152;2023-02-24T08:23:30;59.80;;;31.50;;
41305;SDS011;27051;50.376;19.152;2023-02-24T08:25:56;82.40;;;37.60;;
41305;SDS011;27051;50.376;19.152;2023-02-24T08:28:23;65.10;;;32.90;;
41305;SDS011;27051;50.376;19.152;2023-02-24T08:30:49;67.30;;;36.80;;
41305;SDS011;27051;50.376;19.152;2023-02-24T08:33:19;61.90;;;32.20;;
41305;SDS011;27051;50.376;19.152;2023-02-24T08:35:53;63.50;;;33.50;;
41305;SDS011;27051;50.376;19.152;2023-02-24T08:38:20;67.70;;;35.30;;
41305;SDS011;27051;50.376;19.152;2023-02-24T08:40:53;67.10;;;33.60;;
41305;SDS011;27051;50.376;19.152;2023-02-24T08:45:49;52.70;;;29.70;;
41305;SDS011;27051;50.376;19.152;2023-02-24T08:48:18;59.10;;;31.60;;
41305;SDS011;27051;50.376;19.152;2023-02-24T08:50:46;57.30;;;31.70;;
41305;SDS011;27051;50.376;19.152;2023-02-24T08:53:12;54.40;;;30.20;;
41305;SDS011;27051;50.376;19.152;2023-02-24T08:55:39;55.40;;;30.70;;
41305;SDS011;27051;50.376;19.152;2023-02-24T08:58:05;51.90;;;27.50;;
41305;SDS011;27051;50.376;19.152;2023-02-24T09:00:31;48.50;;;27.30;;
41305;SDS011;27051;50.376;19.152;2023-02-24T09:02:58;45.90;;;25.60;;
41305;SDS011;27051;50.376;19.152;2023-02-24T09:05:24;46.00;;;25.70;;
41305;SDS011;27051;50.376;19.152;2023-02-24T09:07:50;49.50;;;26.90;;
41305;SDS011;27051;50.376;19.152;2023-02-24T09:10:18;46.40;;;26.50;;
41305;SDS011;27051;50.376;19.152;2023-02-24T09:12:45;45.40;;;25.10;;
41305;SDS011;27051;50.376;19.152;2023-02-24T09:15:12;44.50;;;25.60;;
41305;SDS011;27051;50.376;19.152;2023-02-24T09:17:40;44.70;;;26.00;;
41305;SDS011;27051;50.376;19.152;2023-02-24T09:20:09;50.70;;;27.60;;
41305;SDS011;27051;50.376;19.152;2023-02-24T09:22:36;49.50;;;28.30;;
41305;SDS011;27051;50.376;19.152;2023-02-24T09:25:09;51.60;;;27.90;;
41305;SDS011;27051;50.376;19.152;2023-02-24T09:27:37;48.50;;;27.90;;
41305;SDS011;27051;50.376;19.152;2023-02-24T09:30:03;47.40;;;27.50;;
41305;SDS011;27051;50.376;19.152;2023-02-24T09:32:30;53.20;;;26.70;;
41305;SDS011;27051;50.376;19.152;2023-02-24T09:34:56;46.70;;;25.70;;
41305;SDS011;27051;50.376;19.152;2023-02-24T09:37:23;45.10;;;26.30;;
41305;SDS011;27051;50.376;19.152;2023-02-24T09:39:49;44.50;;;24.40;;
41305;SDS011;27051;50.376;19.152;2023-02-24T09:42:20;49.20;;;27.70;;
41305;SDS011;27051;50.376;19.152;2023-02-24T09:44:59;46.70;;;26.80;;
41305;SDS011;27051;50.376;19.152;2023-02-24T09:47:34;45.80;;;26.90;;
41305;SDS011;27051;50.376;19.152;2023-02-24T09:52:48;56.40;;;34.30;;
41305;SDS011;27051;50.376;19.152;2023-02-24T09:58:13;60.80;;;35.20;;
41305;SDS011;27051;50.376;19.152;2023-02-24T10:03:38;61.90;;;36.90;;
41305;SDS011;27051;50.376;19.152;2023-02-24T10:06:13;71.20;;;40.30;;
41305;SDS011;27051;50.376;19.152;2023-02-24T10:11:34;65.90;;;38.30;;
41305;SDS011;27051;50.376;19.152;2023-02-24T10:14:01;67.40;;;36.10;;
41305;SDS011;27051;50.376;19.152;2023-02-24T10:16:30;71.00;;;36.20;;
41305;SDS011;27051;50.376;19.152;2023-02-24T10:19:04;60.10;;;34.50;;
41305;SDS011;27051;50.376;19.152;2023-02-24T10:21:38;57.10;;;32.30;;
41305;SDS011;27051;50.376;19.152;2023-02-24T10:24:10;59.50;;;30.90;;
41305;SDS011;27051;50.376;19.152;2023-02-24T10:26:46;58.40;;;33.40;;
41305;SDS011;27051;50.376;19.152;2023-02-24T10:29:22;59.20;;;33.80;;
41305;SDS011;27051;50.376;19.152;2023-02-24T10:32:18;57.40;;;33.50;;
41305;SDS011;27051;50.376;19.152;2023-02-24T10:34:55;56.30;;;32.30;;
41305;SDS011;27051;50.376;19.152;2023-02-24T10:37:23;58.10;;;33.00;;
41305;SDS011;27051;50.376;19.152;2023-02-24T10:39:50;68.90;;;38.20;;
41305;SDS011;27051;50.376;19.152;2023-02-24T10:42:30;66.80;;;36.00;;
41305;SDS011;27051;50.376;19.152;2023-02-24T10:45:05;64.10;;;39.30;;
41305;SDS011;27051;50.376;19.152;2023-02-24T10:47:32;69.40;;;39.70;;
41305;SDS011;27051;50.376;19.152;2023-02-24T10:50:00;57.60;;;33.90;;
41305;SDS011;27051;50.376;19.152;2023-02-24T10:52:35;57.60;;;33.80;;
41305;SDS011;27051;50.376;19.152;2023-02-24T10:55:05;66.00;;;36.80;;
41305;SDS011;27051;50.376;19.152;2023-02-24T10:57:32;70.70;;;39.20;;
41305;SDS011;27051;50.376;19.152;2023-02-24T10:59:58;55.40;;;33.50;;
41305;SDS011;27051;50.376;19.152;2023-02-24T11:02:25;71.20;;;40.00;;
41305;SDS011;27051;50.376;19.152;2023-02-24T11:04:52;61.80;;;37.10;;
41305;SDS011;27051;50.376;19.152;2023-02-24T11:07:19;62.30;;;37.50;;
41305;SDS011;27051;50.376;19.152;2023-02-24T11:09:46;68.10;;;37.60;;
41305;SDS011;27051;50.376;19.152;2023-02-24T11:14:50;57.60;;;32.50;;
41305;SDS011;27051;50.376;19.152;2023-02-24T11:17:18;64.20;;;36.40;;
41305;SDS011;27051;50.376;19.152;2023-02-24T11:19:48;53.80;;;34.20;;
41305;SDS011;27051;50.376;19.152;2023-02-24T11:22:21;59.60;;;34.40;;
41305;SDS011;27051;50.376;19.152;2023-02-24T11:24:50;70.90;;;42.40;;
41305;SDS011;27051;50.376;19.152;2023-02-24T11:27:17;63.00;;;33.00;;
41305;SDS011;27051;50.376;19.152;2023-02-24T11:29:59;46.50;;;28.60;;
41305;SDS011;27051;50.376;19.152;2023-02-24T11:38:10;48.70;;;28.10;;
41305;SDS011;27051;50.376;19.152;2023-02-24T11:40:50;47.70;;;27.90;;
41305;SDS011;27051;50.376;19.152;2023-02-24T11:43:25;49.70;;;27.50;;
41305;SDS011;27051;50.376;19.152;2023-02-24T11:46:16;52.70;;;27.40;;
41305;SDS011;27051;50.376;19.152;2023-02-24T11:48:51;52.20;;;27.60;;
41305;SDS011;27051;50.376;19.152;2023-02-24T11:51:21;45.50;;;24.60;;
41305;SDS011;27051;50.376;19.152;2023-02-24T11:54:00;50.40;;;25.70;;
41305;SDS011;27051;50.376;19.152;2023-02-24T11:56:30;43.60;;;25.70;;
41305;SDS011;27051;50.376;19.152;2023-02-24T11:59:00;44.90;;;28.00;;
41305;SDS011;27051;50.376;19.152;2023-02-24T12:02:14;42.60;;;23.10;;
41305;SDS011;27051;50.376;19.152;2023-02-24T12:15:45;48.10;;;29.70;;
41305;SDS011;27051;50.376;19.152;2023-02-24T12:18:32;42.70;;;25.10;;
41305;SDS011;27051;50.376;19.152;2023-02-24T12:21:11;47.20;;;25.40;;
41305;SDS011;27051;50.376;19.152;2023-02-24T12:23:44;39.80;;;22.80;;
41305;SDS011;27051;50.376;19.152;2023-02-24T12:29:22;45.20;;;26.10;;
41305;SDS011;27051;50.376;19.152;2023-02-24T12:37:31;50.50;;;23.70;;
41305;SDS011;27051;50.376;19.152;2023-02-24T12:40:26;44.40;;;24.20;;
41305;SDS011;27051;50.376;19.152;2023-02-24T12:48:20;73.70;;;39.20;;
41305;SDS011;27051;50.376;19.152;2023-02-24T12:53:58;53.90;;;30.40;;
41305;SDS011;27051;50.376;19.152;2023-02-24T12:56:35;49.30;;;28.00;;
41305;SDS011;27051;50.376;19.152;2023-02-24T12:59:05;53.60;;;28.30;;
41305;SDS011;27051;50.376;19.152;2023-02-24T13:15:25;63.80;;;32.30;;
41305;SDS011;27051;50.376;19.152;2023-02-24T13:17:53;68.20;;;37.40;;
41305;SDS011;27051;50.376;19.152;2023-02-24T13:20:30;44.20;;;25.80;;
41305;SDS011;27051;50.376;19.152;2023-02-24T13:22:59;56.50;;;32.20;;
41305;SDS011;27051;50.376;19.152;2023-02-24T13:25:36;54.40;;;30.10;;
41305;SDS011;27051;50.376;19.152;2023-02-24T13:28:05;46.00;;;27.00;;
41305;SDS011;27051;50.376;19.152;2023-02-24T13:30:46;42.60;;;25.10;;
41305;SDS011;27051;50.376;19.152;2023-02-24T13:33:22;40.70;;;24.40;;
41305;SDS011;27051;50.376;19.152;2023-02-24T13:38:43;44.40;;;25.00;;
41305;SDS011;27051;50.376;19.152;2023-02-24T13:46:58;50.70;;;26.90;;
41305;SDS011;27051;50.376;19.152;2023-02-24T13:52:52;51.90;;;29.70;;
41305;SDS011;27051;50.376;19.152;2023-02-24T13:58:10;53.70;;;30.30;;
41305;SDS011;27051;50.376;19.152;2023-02-24T14:01:21;52.40;;;29.60;;
41305;SDS011;27051;50.376;19.152;2023-02-24T14:06:45;46.20;;;27.40;;
41305;SDS011;27051;50.376;19.152;2023-02-24T14:09:15;47.50;;;26.60;;
41305;SDS011;27051;50.376;19.152;2023-02-24T14:11:49;50.90;;;29.70;;
41305;SDS011;27051;50.376;19.152;2023-02-24T14:14:18;62.60;;;34.60;;
41305;SDS011;27051;50.376;19.152;2023-02-24T14:16:45;51.80;;;30.40;;
41305;SDS011;27051;50.376;19.152;2023-02-24T14:19:15;49.10;;;31.10;;
41305;SDS011;27051;50.376;19.152;2023-02-24T14:21:46;73.70;;;45.20;;
41305;SDS011;27051;50.376;19.152;2023-02-24T14:24:28;61.50;;;39.30;;
41305;SDS011;27051;50.376;19.152;2023-02-24T14:26:55;46.90;;;28.20;;
41305;SDS011;27051;50.376;19.152;2023-02-24T14:29:27;60.40;;;38.10;;
41305;SDS011;27051;50.376;19.152;2023-02-24T14:31:55;63.40;;;34.60;;
41305;SDS011;27051;50.376;19.152;2023-02-24T14:34:23;52.20;;;30.40;;
41305;SDS011;27051;50.376;19.152;2023-02-24T14:36:58;69.10;;;42.10;;
41305;SDS011;27051;50.376;19.152;2023-02-24T14:39:28;61.70;;;35.00;;
41305;SDS011;27051;50.376;19.152;2023-02-24T14:42:03;49.20;;;28.30;;
41305;SDS011;27051;50.376;19.152;2023-02-24T14:44:49;45.10;;;27.20;;
41305;SDS011;27051;50.376;19.152;2023-02-24T14:47:17;42.00;;;24.30;;
41305;SDS011;27051;50.376;19.152;2023-02-24T14:49:51;46.70;;;25.30;;
41305;SDS011;27051;50.376;19.152;2023-02-24T14:55:16;42.80;;;24.00;;
41305;SDS011;27051;50.376;19.152;2023-02-24T14:57:56;40.00;;;22.10;;
41305;SDS011;27051;50.376;19.152;2023-02-24T15:00:26;47.00;;;27.50;;
41305;SDS011;27051;50.376;19.152;2023-02-24T15:03:10;43.90;;;25.50;;
41305;SDS011;27051;50.376;19.152;2023-02-24T15:05:43;47.70;;;27.30;;
41305;SDS011;27051;50.376;19.152;2023-02-24T15:13:53;46.40;;;26.30;;
41305;SDS011;27051;50.376;19.152;2023-02-24T15:16:25;44.20;;;26.70;;
41305;SDS011;27051;50.376;19.152;2023-02-24T15:18:58;43.00;;;24.60;;
41305;SDS011;27051;50.376;19.152;2023-02-24T15:21:29;43.80;;;26.20;;
41305;SDS011;27051;50.376;19.152;2023-02-24T15:24:03;49.10;;;27.40;;
41305;SDS011;27051;50.376;19.152;2023-02-24T15:26:49;68.20;;;37.70;;
41305;SDS011;27051;50.376;19.152;2023-02-24T15:29:24;111.00;;;52.40;;
41305;SDS011;27051;50.376;19.152;2023-02-24T15:31:53;107.30;;;55.50;;
41305;SDS011;27051;50.376;19.152;2023-02-24T15:34:24;96.00;;;52.60;;
41305;SDS011;27051;50.376;19.152;2023-02-24T15:36:54;71.90;;;40.40;;
41305;SDS011;27051;50.376;19.152;2023-02-24T15:39:23;100.50;;;60.20;;
41305;SDS011;27051;50.376;19.152;2023-02-24T15:42:04;90.50;;;49.90;;
41305;SDS011;27051;50.376;19.152;2023-02-24T15:44:55;120.70;;;67.40;;
41305;SDS011;27051;50.376;19.152;2023-02-24T15:47:27;86.60;;;46.70;;
41305;SDS011;27051;50.376;19.152;2023-02-24T15:49:56;78.60;;;39.00;;
41305;SDS011;27051;50.376;19.152;2023-02-24T15:52:23;73.10;;;40.70;;
41305;SDS011;27051;50.376;19.152;2023-02-24T15:54:53;70.70;;;38.30;;
41305;SDS011;27051;50.376;19.152;2023-02-24T15:57:20;60.00;;;33.70;;
41305;SDS011;27051;50.376;19.152;2023-02-24T15:59:47;59.90;;;34.20;;
41305;SDS011;27051;50.376;19.152;2023-02-24T16:02:17;65.30;;;35.90;;
41305;SDS011;27051;50.376;19.152;2023-02-24T16:07:16;90.90;;;47.50;;
41305;SDS011;27051;50.376;19.152;2023-02-24T16:09:49;74.50;;;40.40;;
41305;SDS011;27051;50.376;19.152;2023-02-24T16:12:18;66.10;;;37.10;;
41305;SDS011;27051;50.376;19.152;2023-02-24T16:14:47;62.20;;;34.80;;
41305;SDS011;27051;50.376;19.152;2023-02-24T16:17:33;63.60;;;33.80;;
41305;SDS011;27051;50.376;19.152;2023-02-24T16:20:02;74.50;;;43.10;;
41305;SDS011;27051;50.376;19.152;2023-02-24T16:22:28;76.00;;;42.20;;
41305;SDS011;27051;50.376;19.152;2023-02-24T16:24:55;75.30;;;44.10;;
41305;SDS011;27051;50.376;19.152;2023-02-24T16:27:21;60.30;;;34.40;;
41305;SDS011;27051;50.376;19.152;2023-02-24T16:29:48;65.70;;;33.30;;